sensor_id;sensor_type;location;lat;lon;timestamp;pressure;altitude;pressure_sealevel;temperature;humidity
13209;BME280;6669;42.678;23.332;2023-05-19T00:01:55;94735.28;;;10.69;100.00
13209;BME280;6669;42.678;23.332;2023-05-19T00:04:25;94717.63;;;10.56;100.00
13209;BME280;6669;42.678;23.332;2023-05-19T00:06:54;94735.28;;;10.69;100.00
13209;BME280;6669;42.678;23.332;2023-05-19T00:09:23;94732.69;;;10.69;100.00
13209;BME280;6669;42.678;23.332;2023-05-19T00:11:51;94684.38;;;10.43;100.00
13209;BME280;6669;42.678;23.332;2023-05-19T00:14:20;94734.94;;;10.72;100.00
13209;BME280;6669;42.678;23.332;2023-05-19T00:16:48;94724.41;;;10.66;100.00
13209;BME280;6669;42.678;23.332;2023-05-19T00:19:17;94710.63;;;10.57;100.00
13209;BME280;6669;42.678;23.332;2023-05-19T00:21:46;94723.72;;;10.72;100.00
13209;BME280;6669;42.678;23.332;2023-05-19T00:24:14;94696.84;;;10.56;100.00
13209;BME280;6669;42.678;23.332;2023-05-19T00:26:42;94700.88;;;10.59;100.00
13209;BME280;6669;42.678;23.332;2023-05-19T00:29:10;94719.69;;;10.69;100.00
13209;BME280;6669;42.678;23.332;2023-05-19T00:31:38;94720.47;;;10.70;100.00
13209;BME280;6669;42.678;23.332;2023-05-19T00:34:06;94713.31;;;10.72;100.00
13209;BME280;6669;42.678;23.332;2023-05-19T00:36:34;94674.63;;;10.45;100.00
13209;BME280;6669;42.678;23.332;2023-05-19T00:39:04;94696.97;;;10.63;100.00
13209;BME280;6669;42.678;23.332;2023-05-19T00:41:32;94719.31;;;10.72;100.00
13209;BME280;6669;42.678;23.332;2023-05-19T00:44:00;94720.31;;;10.71;100.00
13209;BME280;6669;42.678;23.332;2023-05-19T00:46:29;94693.53;;;10.62;100.00
13209;BME280;6669;42.678;23.332;2023-05-19T00:48:57;94714.47;;;10.69;100.00
13209;BME280;6669;42.678;23.332;2023-05-19T00:51:26;94689.03;;;10.56;100.00
13209;BME280;6669;42.678;23.332;2023-05-19T00:53:55;94691.78;;;10.55;100.00
13209;BME280;6669;42.678;23.332;2023-05-19T00:56:25;94669.63;;;10.36;100.00
13209;BME280;6669;42.678;23.332;2023-05-19T00:58:54;94707.06;;;10.58;100.00
13209;BME280;6669;42.678;23.332;2023-05-19T01:01:22;94671.38;;;10.35;100.00
13209;BME280;6669;42.678;23.332;2023-05-19T01:03:52;94669.47;;;10.29;100.00
13209;BME280;6669;42.678;23.332;2023-05-19T01:06:22;94694.47;;;10.38;100.00
13209;BME280;6669;42.678;23.332;2023-05-19T01:08:51;94702.09;;;10.40;100.00
13209;BME280;6669;42.678;23.332;2023-05-19T01:11:19;94703.72;;;10.33;100.00
13209;BME280;6669;42.678;23.332;2023-05-19T01:13:48;94701.31;;;10.23;100.00
13209;BME280;6669;42.678;23.332;2023-05-19T01:16:23;94687.06;;;10.10;100.00
13209;BME280;6669;42.678;23.332;2023-05-19T01:19:00;94712.66;;;10.22;100.00
13209;BME280;6669;42.678;23.332;2023-05-19T01:22:03;94684.16;;;10.05;100.00
13209;BME280;6669;42.678;23.332;2023-05-19T01:25:02;94700.69;;;10.21;100.00
13209;BME280;6669;42.678;23.332;2023-05-19T01:28:07;94704.44;;;10.18;100.00
13209;BME280;6669;42.678;23.332;2023-05-19T01:30:42;94690.66;;;10.01;100.00
13209;BME280;6669;42.678;23.332;2023-05-19T01:33:12;94694.88;;;10.02;100.00
13209;BME280;6669;42.678;23.332;2023-05-19T01:35:41;94668.97;;;9.77;100.00
13209;BME280;6669;42.678;23.332;2023-05-19T01:38:11;94709.81;;;10.00;100.00
13209;BME280;6669;42.678;23.332;2023-05-19T01:40:40;94704.13;;;9.96;100.00
13209;BME280;6669;42.678;23.332;2023-05-19T01:43:14;94687.63;;;9.81;100.00
13209;BME280;6669;42.678;23.332;2023-05-19T01:45:45;94714.50;;;9.96;100.00
13209;BME280;6669;42.678;23.332;2023-05-19T01:48:14;94704.00;;;9.90;100.00
13209;BME280;6669;42.678;23.332;2023-05-19T01:50:42;94693.47;;;9.83;100.00
13209;BME280;6669;42.678;23.332;2023-05-19T01:53:10;94714.72;;;9.87;100.00
13209;BME280;6669;42.678;23.332;2023-05-19T01:55:42;94701.41;;;9.81;100.00
13209;BME280;6669;42.678;23.332;2023-05-19T01:58:19;94702.72;;;9.77;100.00
13209;BME280;6669;42.678;23.332;2023-05-19T02:00:53;94696.06;;;9.75;100.00
13209;BME280;6669;42.678;23.332;2023-05-19T02:03:31;94701.25;;;9.83;100.00
13209;BME280;6669;42.678;23.332;2023-05-19T02:06:11;94701.75;;;9.78;100.00
13209;BME280;6669;42.678;23.332;2023-05-19T02:08:46;94696.06;;;9.75;100.00
13209;BME280;6669;42.678;23.332;2023-05-19T02:11:21;94700.94;;;9.78;100.00
13209;BME280;6669;42.678;23.332;2023-05-19T02:13:55;94700.13;;;9.69;100.00
13209;BME280;6669;42.678;23.332;2023-05-19T02:16:27;94710.84;;;9.74;100.00
13209;BME280;6669;42.678;23.332;2023-05-19T02:18:55;94713.91;;;9.78;100.00
13209;BME280;6669;42.678;23.332;2023-05-19T02:21:25;94719.59;;;9.81;100.00
13209;BME280;6669;42.678;23.332;2023-05-19T02:23:53;94722.19;;;9.81;100.00
13209;BME280;6669;42.678;23.332;2023-05-19T02:26:21;94675.84;;;9.54;100.00
13209;BME280;6669;42.678;23.332;2023-05-19T02:28:49;94716.19;;;9.73;100.00
13209;BME280;6669;42.678;23.332;2023-05-19T02:31:17;94719.09;;;9.70;100.00
13209;BME280;6669;42.678;23.332;2023-05-19T02:33:47;94718.31;;;9.69;100.00
13209;BME280;6669;42.678;23.332;2023-05-19T02:36:15;94710.69;;;9.59;100.00
13209;BME280;6669;42.678;23.332;2023-05-19T02:38:43;94704.38;;;9.54;100.00
13209;BME280;6669;42.678;23.332;2023-05-19T02:41:12;94718.63;;;9.58;100.00
13209;BME280;6669;42.678;23.332;2023-05-19T02:43:40;94709.22;;;9.57;100.00
13209;BME280;6669;42.678;23.332;2023-05-19T02:46:08;94724.47;;;9.60;100.00
13209;BME280;6669;42.678;23.332;2023-05-19T02:48:36;94703.41;;;9.55;100.00
13209;BME280;6669;42.678;23.332;2023-05-19T02:51:06;94713.94;;;9.53;100.00
13209;BME280;6669;42.678;23.332;2023-05-19T02:53:34;94727.38;;;9.57;100.00
13209;BME280;6669;42.678;23.332;2023-05-19T02:56:03;94722.84;;;9.59;100.00
13209;BME280;6669;42.678;23.332;2023-05-19T02:58:31;94724.31;;;9.61;100.00
13209;BME280;6669;42.678;23.332;2023-05-19T03:00:59;94702.75;;;9.53;100.00
13209;BME280;6669;42.678;23.332;2023-05-19T03:03:28;94715.06;;;9.59;100.00
13209;BME280;6669;42.678;23.332;2023-05-19T03:05:56;94734.53;;;9.63;100.00
13209;BME280;6669;42.678;23.332;2023-05-19T03:08:26;94731.28;;;9.69;100.00
13209;BME280;6669;42.678;23.332;2023-05-19T03:10:54;94716.03;;;9.58;100.00
13209;BME280;6669;42.678;23.332;2023-05-19T03:13:22;94721.88;;;9.60;100.00
13209;BME280;6669;42.678;23.332;2023-05-19T03:15:50;94713.13;;;9.53;100.00
13209;BME280;6669;42.678;23.332;2023-05-19T03:18:18;94717.66;;;9.51;100.00
13209;BME280;6669;42.678;23.332;2023-05-19T03:20:47;94725.13;;;9.54;100.00
13209;BME280;6669;42.678;23.332;2023-05-19T03:23:15;94710.22;;;9.47;100.00
13209;BME280;6669;42.678;23.332;2023-05-19T03:25:44;94739.72;;;9.63;100.00
13209;BME280;6669;42.678;23.332;2023-05-19T03:28:13;94735.50;;;9.62;100.00
13209;BME280;6669;42.678;23.332;2023-05-19T03:30:41;94715.22;;;9.49;100.00
13209;BME280;6669;42.678;23.332;2023-05-19T03:33:09;94725.94;;;9.54;100.00
13209;BME280;6669;42.678;23.332;2023-05-19T03:35:37;94724.78;;;9.57;100.00
13209;BME280;6669;42.678;23.332;2023-05-19T03:38:05;94722.19;;;9.57;100.00
13209;BME280;6669;42.678;23.332;2023-05-19T03:40:33;94732.25;;;9.68;100.00
13209;BME280;6669;42.678;23.332;2023-05-19T03:43:03;94743.91;;;9.72;100.00
13209;BME280;6669;42.678;23.332;2023-05-19T03:45:31;94718.16;;;9.62;100.00
13209;BME280;6669;42.678;23.332;2023-05-19T03:47:59;94735.47;;;9.78;100.00
13209;BME280;6669;42.678;23.332;2023-05-19T03:50:27;94709.88;;;9.67;100.00
13209;BME280;6669;42.678;23.332;2023-05-19T03:52:57;94746.50;;;9.89;100.00
13209;BME280;6669;42.678;23.332;2023-05-19T03:55:26;94747.34;;;9.89;100.00
13209;BME280;6669;42.678;23.332;2023-05-19T03:57:55;94700.44;;;9.74;100.00
13209;BME280;6669;42.678;23.332;2023-05-19T04:00:25;94750.69;;;10.06;100.00
13209;BME280;6669;42.678;23.332;2023-05-19T04:02:53;94737.09;;;10.04;100.00
13209;BME280;6669;42.678;23.332;2023-05-19T04:05:22;94732.34;;;10.08;100.00
13209;BME280;6669;42.678;23.332;2023-05-19T04:07:50;94733.66;;;10.12;100.00
13209;BME280;6669;42.678;23.332;2023-05-19T04:10:18;94760.56;;;10.36;100.00
13209;BME280;6669;42.678;23.332;2023-05-19T04:12:46;94759.09;;;10.41;100.00
13209;BME280;6669;42.678;23.332;2023-05-19T04:15:14;94748.34;;;10.44;100.00
13209;BME280;6669;42.678;23.332;2023-05-19T04:17:44;94747.69;;;10.51;100.00
13209;BME280;6669;42.678;23.332;2023-05-19T04:20:12;94746.53;;;10.53;100.00
13209;BME280;6669;42.678;23.332;2023-05-19T04:22:41;94768.72;;;10.72;100.00
13209;BME280;6669;42.678;23.332;2023-05-19T04:25:12;94769.19;;;10.76;100.00
13209;BME280;6669;42.678;23.332;2023-05-19T04:27:40;94746.44;;;10.78;100.00
13209;BME280;6669;42.678;23.332;2023-05-19T04:30:09;94763.28;;;10.90;100.00
13209;BME280;6669;42.678;23.332;2023-05-19T04:32:37;94757.28;;;10.90;100.00
13209;BME280;6669;42.678;23.332;2023-05-19T04:35:08;94774.91;;;11.03;100.00
13209;BME280;6669;42.678;23.332;2023-05-19T04:37:39;94761.50;;;10.91;100.00
13209;BME280;6669;42.678;23.332;2023-05-19T04:40:08;94764.34;;;11.04;100.00
13209;BME280;6669;42.678;23.332;2023-05-19T04:42:36;94757.50;;;11.03;100.00
13209;BME280;6669;42.678;23.332;2023-05-19T04:45:07;94775.22;;;11.08;100.00
13209;BME280;6669;42.678;23.332;2023-05-19T04:47:37;94778.59;;;11.17;100.00
13209;BME280;6669;42.678;23.332;2023-05-19T04:50:09;94779.91;;;11.12;100.00
13209;BME280;6669;42.678;23.332;2023-05-19T04:52:38;94787.72;;;11.12;100.00
13209;BME280;6669;42.678;23.332;2023-05-19T04:55:07;94778.50;;;11.02;100.00
13209;BME280;6669;42.678;23.332;2023-05-19T04:57:36;94784.00;;;11.07;100.00
13209;BME280;6669;42.678;23.332;2023-05-19T05:00:06;94779.47;;;11.01;100.00
13209;BME280;6669;42.678;23.332;2023-05-19T05:02:37;94787.75;;;11.04;100.00
13209;BME280;6669;42.678;23.332;2023-05-19T05:05:09;94766.47;;;11.01;100.00
13209;BME280;6669;42.678;23.332;2023-05-19T05:07:37;94779.25;;;11.19;100.00
13209;BME280;6669;42.678;23.332;2023-05-19T05:10:06;94796.41;;;11.28;100.00
13209;BME280;6669;42.678;23.332;2023-05-19T05:12:35;94771.97;;;11.06;100.00
13209;BME280;6669;42.678;23.332;2023-05-19T05:15:04;94776.31;;;11.13;100.00
13209;BME280;6669;42.678;23.332;2023-05-19T05:17:34;94768.09;;;11.02;100.00
13209;BME280;6669;42.678;23.332;2023-05-19T05:20:04;94785.41;;;11.18;100.00
13209;BME280;6669;42.678;23.332;2023-05-19T05:22:34;94781.56;;;11.05;100.00
13209;BME280;6669;42.678;23.332;2023-05-19T05:25:05;94783.00;;;11.16;100.00
13209;BME280;6669;42.678;23.332;2023-05-19T05:27:33;94767.81;;;11.20;100.00
13209;BME280;6669;42.678;23.332;2023-05-19T05:30:02;94778.50;;;11.33;100.00
13209;BME280;6669;42.678;23.332;2023-05-19T05:32:30;94775.53;;;11.36;100.00
13209;BME280;6669;42.678;23.332;2023-05-19T05:34:59;94767.72;;;11.36;100.00
13209;BME280;6669;42.678;23.332;2023-05-19T05:37:27;94794.97;;;11.49;100.00
13209;BME280;6669;42.678;23.332;2023-05-19T05:39:56;94791.00;;;11.61;100.00
13209;BME280;6669;42.678;23.332;2023-05-19T05:42:24;94786.81;;;11.75;100.00
13209;BME280;6669;42.678;23.332;2023-05-19T05:44:55;94790.69;;;11.79;100.00
13209;BME280;6669;42.678;23.332;2023-05-19T05:47:23;94783.34;;;11.83;100.00
13209;BME280;6669;42.678;23.332;2023-05-19T05:49:53;94760.88;;;11.82;100.00
13209;BME280;6669;42.678;23.332;2023-05-19T05:52:21;94787.19;;;12.10;100.00
13209;BME280;6669;42.678;23.332;2023-05-19T05:54:54;94760.44;;;12.16;100.00
13209;BME280;6669;42.678;23.332;2023-05-19T05:57:23;94795.41;;;12.22;100.00
13209;BME280;6669;42.678;23.332;2023-05-19T05:59:52;94793.50;;;12.16;100.00
13209;BME280;6669;42.678;23.332;2023-05-19T06:02:23;94803.31;;;12.29;100.00
13209;BME280;6669;42.678;23.332;2023-05-19T06:04:51;94796.56;;;12.34;100.00
13209;BME280;6669;42.678;23.332;2023-05-19T06:07:20;94825.78;;;12.45;100.00
13209;BME280;6669;42.678;23.332;2023-05-19T06:09:50;94802.44;;;12.36;100.00
13209;BME280;6669;42.678;23.332;2023-05-19T06:12:18;94822.41;;;12.59;100.00
13209;BME280;6669;42.678;23.332;2023-05-19T06:14:47;94818.00;;;12.74;100.00
13209;BME280;6669;42.678;23.332;2023-05-19T06:17:15;94816.19;;;12.75;100.00
13209;BME280;6669;42.678;23.332;2023-05-19T06:19:43;94802.69;;;12.71;100.00
13209;BME280;6669;42.678;23.332;2023-05-19T06:22:11;94805.41;;;12.93;100.00
13209;BME280;6669;42.678;23.332;2023-05-19T06:24:39;94814.75;;;13.02;100.00
13209;BME280;6669;42.678;23.332;2023-05-19T06:27:08;94822.72;;;13.16;100.00
13209;BME280;6669;42.678;23.332;2023-05-19T06:29:36;94824.59;;;13.22;100.00
13209;BME280;6669;42.678;23.332;2023-05-19T06:32:05;94822.00;;;13.37;100.00
13209;BME280;6669;42.678;23.332;2023-05-19T06:34:34;94835.75;;;13.46;100.00
13209;BME280;6669;42.678;23.332;2023-05-19T06:37:03;94833.88;;;13.61;100.00
13209;BME280;6669;42.678;23.332;2023-05-19T06:39:31;94797.31;;;13.61;100.00
13209;BME280;6669;42.678;23.332;2023-05-19T06:41:59;94834.16;;;13.88;100.00
13209;BME280;6669;42.678;23.332;2023-05-19T06:44:27;94807.81;;;13.89;100.00
13209;BME280;6669;42.678;23.332;2023-05-19T06:46:56;94824.88;;;14.07;100.00
13209;BME280;6669;42.678;23.332;2023-05-19T06:49:25;94834.81;;;14.18;100.00
13209;BME280;6669;42.678;23.332;2023-05-19T06:51:55;94829.03;;;14.23;100.00
13209;BME280;6669;42.678;23.332;2023-05-19T06:54:23;94841.81;;;14.39;100.00
13209;BME280;6669;42.678;23.332;2023-05-19T06:56:51;94832.56;;;14.37;100.00
13209;BME280;6669;42.678;23.332;2023-05-19T06:59:19;94828.44;;;14.28;100.00
13209;BME280;6669;42.678;23.332;2023-05-19T07:01:48;94855.13;;;14.45;100.00
13209;BME280;6669;42.678;23.332;2023-05-19T07:04:16;94847.75;;;14.55;100.00
13209;BME280;6669;42.678;23.332;2023-05-19T07:06:46;94848.28;;;14.44;100.00
13209;BME280;6669;42.678;23.332;2023-05-19T07:09:16;94852.41;;;14.60;100.00
13209;BME280;6669;42.678;23.332;2023-05-19T07:11:44;94847.59;;;14.63;100.00
13209;BME280;6669;42.678;23.332;2023-05-19T07:14:12;94853.97;;;14.76;100.00
13209;BME280;6669;42.678;23.332;2023-05-19T07:16:40;94853.59;;;14.57;100.00
13209;BME280;6669;42.678;23.332;2023-05-19T07:19:08;94864.22;;;14.77;100.00
13209;BME280;6669;42.678;23.332;2023-05-19T07:21:37;94850.56;;;14.82;100.00
13209;BME280;6669;42.678;23.332;2023-05-19T07:24:06;94850.69;;;15.02;100.00
13209;BME280;6669;42.678;23.332;2023-05-19T07:26:35;94864.44;;;15.17;100.00
13209;BME280;6669;42.678;23.332;2023-05-19T07:29:03;94858.03;;;15.27;100.00
13209;BME280;6669;42.678;23.332;2023-05-19T07:31:31;94857.88;;;15.35;100.00
13209;BME280;6669;42.678;23.332;2023-05-19T07:34:00;94841.56;;;15.40;100.00
13209;BME280;6669;42.678;23.332;2023-05-19T07:36:28;94852.50;;;15.57;100.00
13209;BME280;6669;42.678;23.332;2023-05-19T07:38:57;94848.50;;;15.67;100.00
13209;BME280;6669;42.678;23.332;2023-05-19T07:41:26;94864.31;;;15.94;100.00
13209;BME280;6669;42.678;23.332;2023-05-19T07:43:54;94855.66;;;15.87;100.00
13209;BME280;6669;42.678;23.332;2023-05-19T07:46:23;94833.06;;;15.86;100.00
13209;BME280;6669;42.678;23.332;2023-05-19T07:48:51;94833.25;;;16.05;100.00
13209;BME280;6669;42.678;23.332;2023-05-19T07:51:19;94837.09;;;16.22;100.00
13209;BME280;6669;42.678;23.332;2023-05-19T07:53:48;94845.38;;;16.39;100.00
13209;BME280;6669;42.678;23.332;2023-05-19T07:56:17;94833.28;;;16.11;100.00
13209;BME280;6669;42.678;23.332;2023-05-19T07:58:47;94864.56;;;16.40;100.00
13209;BME280;6669;42.678;23.332;2023-05-19T08:01:16;94850.41;;;16.61;100.00
13209;BME280;6669;42.678;23.332;2023-05-19T08:03:44;94850.97;;;16.83;100.00
13209;BME280;6669;42.678;23.332;2023-05-19T08:06:13;94866.91;;;17.08;100.00
13209;BME280;6669;42.678;23.332;2023-05-19T08:08:42;94870.53;;;17.14;100.00
13209;BME280;6669;42.678;23.332;2023-05-19T08:11:10;94815.84;;;16.84;100.00
13209;BME280;6669;42.678;23.332;2023-05-19T08:13:38;94836.72;;;16.52;100.00
13209;BME280;6669;42.678;23.332;2023-05-19T08:16:08;94859.03;;;17.02;100.00
13209;BME280;6669;42.678;23.332;2023-05-19T08:18:39;94862.84;;;17.12;100.00
13209;BME280;6669;42.678;23.332;2023-05-19T08:21:10;94854.34;;;17.24;100.00
13209;BME280;6669;42.678;23.332;2023-05-19T08:23:39;94870.00;;;17.51;100.00
13209;BME280;6669;42.678;23.332;2023-05-19T08:26:09;94843.09;;;17.48;100.00
13209;BME280;6669;42.678;23.332;2023-05-19T08:28:39;94838.00;;;17.60;100.00
13209;BME280;6669;42.678;23.332;2023-05-19T08:31:09;94861.91;;;17.91;100.00
13209;BME280;6669;42.678;23.332;2023-05-19T08:33:37;94843.34;;;17.79;100.00
13209;BME280;6669;42.678;23.332;2023-05-19T08:36:06;94862.31;;;17.94;100.00
13209;BME280;6669;42.678;23.332;2023-05-19T08:38:34;94855.44;;;17.87;100.00
13209;BME280;6669;42.678;23.332;2023-05-19T08:41:02;94853.00;;;17.99;100.00
13209;BME280;6669;42.678;23.332;2023-05-19T08:43:31;94835.53;;;18.04;100.00
13209;BME280;6669;42.678;23.332;2023-05-19T08:46:00;94819.19;;;18.02;100.00
13209;BME280;6669;42.678;23.332;2023-05-19T08:48:29;94855.91;;;18.41;100.00
13209;BME280;6669;42.678;23.332;2023-05-19T08:51:06;94823.16;;;18.37;100.00
13209;BME280;6669;42.678;23.332;2023-05-19T08:53:40;94836.03;;;18.45;100.00
13209;BME280;6669;42.678;23.332;2023-05-19T08:56:13;94857.00;;;18.58;100.00
13209;BME280;6669;42.678;23.332;2023-05-19T08:58:43;94849.28;;;18.57;100.00
13209;BME280;6669;42.678;23.332;2023-05-19T09:01:13;94845.09;;;18.74;100.00
13209;BME280;6669;42.678;23.332;2023-05-19T09:03:45;94851.19;;;18.75;100.00
13209;BME280;6669;42.678;23.332;2023-05-19T09:06:15;94834.25;;;18.64;100.00
13209;BME280;6669;42.678;23.332;2023-05-19T09:08:43;94843.97;;;18.63;100.00
13209;BME280;6669;42.678;23.332;2023-05-19T09:11:12;94826.19;;;18.59;100.00
13209;BME280;6669;42.678;23.332;2023-05-19T09:13:40;94840.34;;;18.83;100.00
13209;BME280;6669;42.678;23.332;2023-05-19T09:16:09;94828.34;;;18.87;100.00
13209;BME280;6669;42.678;23.332;2023-05-19T09:18:38;94842.28;;;18.94;100.00
13209;BME280;6669;42.678;23.332;2023-05-19T09:21:08;94823.84;;;18.94;100.00
13209;BME280;6669;42.678;23.332;2023-05-19T09:23:37;94837.91;;;19.07;100.00
13209;BME280;6669;42.678;23.332;2023-05-19T09:26:06;94843.47;;;19.17;100.00
13209;BME280;6669;42.678;23.332;2023-05-19T09:28:36;94830.56;;;19.27;100.00
13209;BME280;6669;42.678;23.332;2023-05-19T09:31:05;94807.75;;;19.21;100.00
13209;BME280;6669;42.678;23.332;2023-05-19T09:33:35;94808.56;;;19.22;100.00
13209;BME280;6669;42.678;23.332;2023-05-19T09:36:04;94823.72;;;19.57;100.00
13209;BME280;6669;42.678;23.332;2023-05-19T09:38:36;94826.44;;;19.81;100.00
13209;BME280;6669;42.678;23.332;2023-05-19T09:41:06;94811.41;;;19.81;100.00
13209;BME280;6669;42.678;23.332;2023-05-19T09:43:34;94826.88;;;20.08;100.00
13209;BME280;6669;42.678;23.332;2023-05-19T09:46:04;94825.38;;;20.00;100.00
13209;BME280;6669;42.678;23.332;2023-05-19T09:48:33;94829.88;;;20.12;100.00
13209;BME280;6669;42.678;23.332;2023-05-19T09:51:04;94820.50;;;20.28;100.00
13209;BME280;6669;42.678;23.332;2023-05-19T09:53:36;94804.78;;;20.33;100.00
13209;BME280;6669;42.678;23.332;2023-05-19T09:56:07;94812.81;;;20.62;100.00
13209;BME280;6669;42.678;23.332;2023-05-19T09:58:37;94798.59;;;20.39;100.00
13209;BME280;6669;42.678;23.332;2023-05-19T10:01:08;94809.16;;;20.63;100.00
13209;BME280;6669;42.678;23.332;2023-05-19T10:03:38;94794.81;;;20.58;100.00
13209;BME280;6669;42.678;23.332;2023-05-19T10:06:07;94799.06;;;20.83;100.00
13209;BME280;6669;42.678;23.332;2023-05-19T10:08:38;94796.66;;;20.82;100.00
13209;BME280;6669;42.678;23.332;2023-05-19T10:11:10;94796.31;;;20.78;100.00
13209;BME280;6669;42.678;23.332;2023-05-19T10:13:40;94814.47;;;20.86;100.00
13209;BME280;6669;42.678;23.332;2023-05-19T10:16:10;94808.16;;;20.87;100.00
13209;BME280;6669;42.678;23.332;2023-05-19T10:18:40;94785.16;;;20.40;100.00
13209;BME280;6669;42.678;23.332;2023-05-19T10:21:08;94805.59;;;20.69;100.00
13209;BME280;6669;42.678;23.332;2023-05-19T10:23:38;94804.69;;;20.87;100.00
13209;BME280;6669;42.678;23.332;2023-05-19T10:26:07;94787.97;;;21.10;100.00
13209;BME280;6669;42.678;23.332;2023-05-19T10:28:38;94806.66;;;21.32;100.00
13209;BME280;6669;42.678;23.332;2023-05-19T10:31:11;94785.00;;;21.47;95.76
13209;BME280;6669;42.678;23.332;2023-05-19T10:33:51;94786.38;;;21.50;98.31
13209;BME280;6669;42.678;23.332;2023-05-19T10:36:41;94796.44;;;21.65;88.48
13209;BME280;6669;42.678;23.332;2023-05-19T10:39:16;94781.06;;;21.79;93.46
13209;BME280;6669;42.678;23.332;2023-05-19T10:41:48;94792.94;;;21.76;88.04
13209;BME280;6669;42.678;23.332;2023-05-19T10:44:26;94755.69;;;21.95;86.45
13209;BME280;6669;42.678;23.332;2023-05-19T10:46:57;94793.09;;;22.49;87.89
13209;BME280;6669;42.678;23.332;2023-05-19T10:49:25;94778.50;;;22.69;84.95
13209;BME280;6669;42.678;23.332;2023-05-19T10:51:54;94788.78;;;23.05;76.67
13209;BME280;6669;42.678;23.332;2023-05-19T10:54:40;94764.59;;;23.45;71.94
13209;BME280;6669;42.678;23.332;2023-05-19T10:57:13;94764.69;;;23.78;68.72
13209;BME280;6669;42.678;23.332;2023-05-19T10:59:42;94785.78;;;24.22;71.57
13209;BME280;6669;42.678;23.332;2023-05-19T11:02:37;94783.34;;;23.88;72.57
13209;BME280;6669;42.678;23.332;2023-05-19T11:05:07;94742.91;;;23.48;72.68
13209;BME280;6669;42.678;23.332;2023-05-19T11:07:36;94769.03;;;24.22;71.62
13209;BME280;6669;42.678;23.332;2023-05-19T11:10:10;94753.50;;;24.03;70.08
13209;BME280;6669;42.678;23.332;2023-05-19T11:12:40;94761.75;;;23.79;69.50
13209;BME280;6669;42.678;23.332;2023-05-19T11:15:10;94766.41;;;23.67;69.66
13209;BME280;6669;42.678;23.332;2023-05-19T11:17:40;94763.63;;;23.51;72.36
13209;BME280;6669;42.678;23.332;2023-05-19T11:20:19;94768.19;;;23.12;75.64
13209;BME280;6669;42.678;23.332;2023-05-19T11:23:05;94748.63;;;22.51;77.79
13209;BME280;6669;42.678;23.332;2023-05-19T11:25:42;94770.91;;;22.95;70.55
13209;BME280;6669;42.678;23.332;2023-05-19T11:28:12;94766.59;;;22.89;73.50
13209;BME280;6669;42.678;23.332;2023-05-19T11:30:43;94764.16;;;22.65;75.38
13209;BME280;6669;42.678;23.332;2023-05-19T11:33:12;94766.53;;;22.44;81.15
13209;BME280;6669;42.678;23.332;2023-05-19T11:35:41;94754.81;;;22.40;78.38
13209;BME280;6669;42.678;23.332;2023-05-19T11:38:10;94758.25;;;22.41;74.46
13209;BME280;6669;42.678;23.332;2023-05-19T11:40:41;94765.31;;;22.35;73.91
13209;BME280;6669;42.678;23.332;2023-05-19T11:43:10;94759.22;;;22.17;77.01
13209;BME280;6669;42.678;23.332;2023-05-19T11:45:38;94747.16;;;21.93;83.74
13209;BME280;6669;42.678;23.332;2023-05-19T11:48:10;94787.63;;;21.76;97.56
13209;BME280;6669;42.678;23.332;2023-05-19T11:50:40;94781.81;;;20.45;100.00
13209;BME280;6669;42.678;23.332;2023-05-19T11:53:11;94789.16;;;19.77;100.00
13209;BME280;6669;42.678;23.332;2023-05-19T11:55:45;94798.81;;;19.22;100.00
13209;BME280;6669;42.678;23.332;2023-05-19T11:58:15;94801.81;;;18.89;100.00
13209;BME280;6669;42.678;23.332;2023-05-19T12:00:44;94792.75;;;18.41;100.00
13209;BME280;6669;42.678;23.332;2023-05-19T12:03:13;94818.31;;;18.34;100.00
13209;BME280;6669;42.678;23.332;2023-05-19T12:05:44;94810.91;;;17.99;100.00
13209;BME280;6669;42.678;23.332;2023-05-19T12:08:15;94807.72;;;17.06;100.00
13209;BME280;6669;42.678;23.332;2023-05-19T12:10:47;94820.28;;;16.97;100.00
13209;BME280;6669;42.678;23.332;2023-05-19T12:13:16;94825.13;;;16.80;100.00
13209;BME280;6669;42.678;23.332;2023-05-19T12:15:48;94832.84;;;16.48;100.00
13209;BME280;6669;42.678;23.332;2023-05-19T12:18:18;94831.88;;;16.22;100.00
13209;BME280;6669;42.678;23.332;2023-05-19T12:20:46;94835.50;;;16.08;100.00
13209;BME280;6669;42.678;23.332;2023-05-19T12:23:14;94842.06;;;15.77;100.00
13209;BME280;6669;42.678;23.332;2023-05-19T12:25:43;94849.28;;;15.55;100.00
13209;BME280;6669;42.678;23.332;2023-05-19T12:28:14;94844.06;;;15.13;100.00
13209;BME280;6669;42.678;23.332;2023-05-19T12:30:46;94807.53;;;14.91;100.00
13209;BME280;6669;42.678;23.332;2023-05-19T12:33:14;94840.25;;;15.15;100.00
13209;BME280;6669;42.678;23.332;2023-05-19T12:35:43;94828.09;;;14.94;100.00
13209;BME280;6669;42.678;23.332;2023-05-19T12:38:13;94838.47;;;15.16;100.00
13209;BME280;6669;42.678;23.332;2023-05-19T12:40:41;94823.41;;;15.31;100.00
13209;BME280;6669;42.678;23.332;2023-05-19T12:43:19;94823.88;;;15.55;100.00
13209;BME280;6669;42.678;23.332;2023-05-19T12:45:48;94820.34;;;15.96;100.00
13209;BME280;6669;42.678;23.332;2023-05-19T12:48:17;94794.34;;;16.22;100.00
13209;BME280;6669;42.678;23.332;2023-05-19T12:50:50;94812.28;;;16.38;100.00
13209;BME280;6669;42.678;23.332;2023-05-19T12:53:19;94800.78;;;16.39;100.00
13209;BME280;6669;42.678;23.332;2023-05-19T12:55:50;94769.88;;;16.48;100.00
13209;BME280;6669;42.678;23.332;2023-05-19T12:58:22;94753.56;;;16.46;100.00
13209;BME280;6669;42.678;23.332;2023-05-19T13:00:57;94775.91;;;16.69;100.00
13209;BME280;6669;42.678;23.332;2023-05-19T13:03:41;94790.22;;;16.93;100.00
13209;BME280;6669;42.678;23.332;2023-05-19T13:06:10;94779.09;;;16.91;100.00
13209;BME280;6669;42.678;23.332;2023-05-19T13:08:38;94745.94;;;17.03;100.00